sensor_id;sensor_type;location;lat;lon;timestamp;pressure;altitude;pressure_sealevel;temperature;humidity
68793;BME280;55778;54.346;10.210;2023-01-24T00:00:51;103745.03;;;1.96;100.00
68793;BME280;55778;54.346;10.210;2023-01-24T00:03:17;103745.03;;;1.97;100.00
68793;BME280;55778;54.346;10.210;2023-01-24T00:05:44;103739.63;;;2.00;100.00
68793;BME280;55778;54.346;10.210;2023-01-24T00:08:11;103744.94;;;2.03;100.00
68793;BME280;55778;54.346;10.210;2023-01-24T00:10:37;103739.63;;;1.99;100.00
68793;BME280;55778;54.346;10.210;2023-01-24T00:13:03;103743.28;;;1.93;100.00
68793;BME280;55778;54.346;10.210;2023-01-24T00:15:28;103743.28;;;1.95;100.00
68793;BME280;55778;54.346;10.210;2023-01-24T00:17:54;103741.44;;;2.00;100.00
68793;BME280;55778;54.346;10.210;2023-01-24T00:20:19;103738.63;;;2.11;100.00
68793;BME280;55778;54.346;10.210;2023-01-24T00:22:44;103734.03;;;2.16;100.00
68793;BME280;55778;54.346;10.210;2023-01-24T00:25:10;103736.63;;;2.23;100.00
68793;BME280;55778;54.346;10.210;2023-01-24T00:27:35;103737.66;;;2.15;100.00
68793;BME280;55778;54.346;10.210;2023-01-24T00:30:02;103736.00;;;2.04;100.00
68793;BME280;55778;54.346;10.210;2023-01-24T00:32:29;103735.19;;;1.98;100.00
68793;BME280;55778;54.346;10.210;2023-01-24T00:34:55;103730.56;;;2.09;100.00
68793;BME280;55778;54.346;10.210;2023-01-24T00:37:20;103730.69;;;2.00;100.00
68793;BME280;55778;54.346;10.210;2023-01-24T00:39:46;103721.53;;;2.13;100.00
68793;BME280;55778;54.346;10.210;2023-01-24T00:42:11;103715.38;;;2.02;100.00
68793;BME280;55778;54.346;10.210;2023-01-24T00:44:36;103727.06;;;2.02;100.00
68793;BME280;55778;54.346;10.210;2023-01-24T00:47:02;103719.81;;;2.09;100.00
68793;BME280;55778;54.346;10.210;2023-01-24T00:49:27;103716.38;;;1.96;100.00
68793;BME280;55778;54.346;10.210;2023-01-24T00:51:53;103722.84;;;1.82;100.00
68793;BME280;55778;54.346;10.210;2023-01-24T00:54:18;103722.78;;;1.85;100.00
68793;BME280;55778;54.346;10.210;2023-01-24T00:56:43;103728.16;;;1.86;99.38
68793;BME280;55778;54.346;10.210;2023-01-24T00:59:09;103729.75;;;2.02;95.19
68793;BME280;55778;54.346;10.210;2023-01-24T01:01:35;103729.72;;;2.04;93.73
68793;BME280;55778;54.346;10.210;2023-01-24T01:04:00;103727.91;;;2.08;94.71
68793;BME280;55778;54.346;10.210;2023-01-24T01:06:26;103721.72;;;1.99;94.06
68793;BME280;55778;54.346;10.210;2023-01-24T01:08:51;103733.34;;;2.03;91.50
68793;BME280;55778;54.346;10.210;2023-01-24T01:11:17;103725.00;;;2.21;92.70
68793;BME280;55778;54.346;10.210;2023-01-24T01:13:43;103724.16;;;2.18;94.40
68793;BME280;55778;54.346;10.210;2023-01-24T01:16:13;103720.50;;;2.23;93.24
68793;BME280;55778;54.346;10.210;2023-01-24T01:18:41;103721.38;;;2.25;92.20
68793;BME280;55778;54.346;10.210;2023-01-24T01:21:07;103720.72;;;2.06;92.41
68793;BME280;55778;54.346;10.210;2023-01-24T01:23:34;103722.47;;;2.12;93.28
68793;BME280;55778;54.346;10.210;2023-01-24T01:26:01;103717.22;;;2.01;94.26
68793;BME280;55778;54.346;10.210;2023-01-24T01:28:27;103713.59;;;2.02;94.54
68793;BME280;55778;54.346;10.210;2023-01-24T01:30:52;103717.94;;;2.13;93.56
68793;BME280;55778;54.346;10.210;2023-01-24T01:33:18;103721.66;;;2.04;93.37
68793;BME280;55778;54.346;10.210;2023-01-24T01:35:43;103715.19;;;2.19;90.68
68793;BME280;55778;54.346;10.210;2023-01-24T01:38:09;103709.72;;;2.23;89.71
68793;BME280;55778;54.346;10.210;2023-01-24T01:40:34;103711.72;;;2.11;89.47
68793;BME280;55778;54.346;10.210;2023-01-24T01:43:00;103719.66;;;2.20;89.71
68793;BME280;55778;54.346;10.210;2023-01-24T01:45:42;103711.19;;;2.47;87.64
68793;BME280;55778;54.346;10.210;2023-01-24T01:53:35;103715.81;;;2.39;87.41
68793;BME280;55778;54.346;10.210;2023-01-24T01:56:13;103718.03;;;2.06;88.37
68793;BME280;55778;54.346;10.210;2023-01-24T01:58:43;103719.81;;;2.08;89.26
68793;BME280;55778;54.346;10.210;2023-01-24T02:01:09;103720.75;;;2.03;90.69
68793;BME280;55778;54.346;10.210;2023-01-24T02:03:49;103721.66;;;2.02;91.51
68793;BME280;55778;54.346;10.210;2023-01-24T02:06:25;103720.72;;;2.05;91.97
68793;BME280;55778;54.346;10.210;2023-01-24T02:08:54;103716.34;;;1.99;92.45
68793;BME280;55778;54.346;10.210;2023-01-24T02:11:20;103715.44;;;1.99;92.62
68793;BME280;55778;54.346;10.210;2023-01-24T02:14:07;103714.59;;;1.95;93.16
68793;BME280;55778;54.346;10.210;2023-01-24T02:16:52;103716.38;;;1.96;93.48
68793;BME280;55778;54.346;10.210;2023-01-24T02:22:18;103715.53;;;1.91;94.04
68793;BME280;55778;54.346;10.210;2023-01-24T02:24:52;103716.44;;;1.90;94.47
68793;BME280;55778;54.346;10.210;2023-01-24T02:27:24;103713.75;;;1.90;94.91
68793;BME280;55778;54.346;10.210;2023-01-24T02:29:49;103710.22;;;1.85;96.00
68793;BME280;55778;54.346;10.210;2023-01-24T02:32:15;103709.31;;;1.88;95.90
68793;BME280;55778;54.346;10.210;2023-01-24T02:34:42;103720.91;;;1.91;95.80
68793;BME280;55778;54.346;10.210;2023-01-24T02:37:10;103717.34;;;1.91;95.94
68793;BME280;55778;54.346;10.210;2023-01-24T02:39:45;103720.91;;;1.90;95.95
68793;BME280;55778;54.346;10.210;2023-01-24T02:42:13;103716.47;;;1.87;96.59
68793;BME280;55778;54.346;10.210;2023-01-24T02:47:11;103713.88;;;1.80;96.95
68793;BME280;55778;54.346;10.210;2023-01-24T02:49:36;103714.78;;;1.80;97.22
68793;BME280;55778;54.346;10.210;2023-01-24T02:52:02;103719.22;;;1.84;96.86
68793;BME280;55778;54.346;10.210;2023-01-24T02:54:46;103710.00;;;2.03;96.53
68793;BME280;55778;54.346;10.210;2023-01-24T02:57:11;103705.50;;;2.04;95.08
68793;BME280;55778;54.346;10.210;2023-01-24T02:59:55;103712.59;;;2.09;92.88
68793;BME280;55778;54.346;10.210;2023-01-24T03:02:20;103714.09;;;2.32;90.59
68793;BME280;55778;54.346;10.210;2023-01-24T03:04:46;103721.69;;;2.01;88.83
68793;BME280;55778;54.346;10.210;2023-01-24T03:07:11;103722.75;;;1.88;88.46
68793;BME280;55778;54.346;10.210;2023-01-24T03:09:36;103715.69;;;1.79;88.40
68793;BME280;55778;54.346;10.210;2023-01-24T03:12:06;103719.31;;;1.75;90.09
68793;BME280;55778;54.346;10.210;2023-01-24T03:14:50;103720.13;;;1.83;89.97
68793;BME280;55778;54.346;10.210;2023-01-24T03:17:34;103717.34;;;1.91;88.88
68793;BME280;55778;54.346;10.210;2023-01-24T03:20:18;103706.47;;;2.00;87.97
68793;BME280;55778;54.346;10.210;2023-01-24T03:23:03;103716.38;;;1.95;88.87
68793;BME280;55778;54.346;10.210;2023-01-24T03:25:47;103708.84;;;2.21;87.98
68793;BME280;55778;54.346;10.210;2023-01-24T03:28:31;103712.47;;;2.19;88.32
68793;BME280;55778;54.346;10.210;2023-01-24T03:31:15;103712.22;;;2.37;87.14
68793;BME280;55778;54.346;10.210;2023-01-24T03:33:59;103713.38;;;2.21;87.86
68793;BME280;55778;54.346;10.210;2023-01-24T03:36:43;103716.28;;;2.04;88.70
68793;BME280;55778;54.346;10.210;2023-01-24T03:39:10;103728.81;;;2.05;89.01
68793;BME280;55778;54.346;10.210;2023-01-24T03:41:54;103721.72;;;1.99;89.04
68793;BME280;55778;54.346;10.210;2023-01-24T03:44:20;103726.25;;;1.93;90.32
68793;BME280;55778;54.346;10.210;2023-01-24T03:46:45;103728.25;;;1.77;91.61
68793;BME280;55778;54.346;10.210;2023-01-24T03:49:11;103732.81;;;1.69;91.87
68793;BME280;55778;54.346;10.210;2023-01-24T03:51:36;103727.31;;;1.80;88.27
68793;BME280;55778;54.346;10.210;2023-01-24T03:54:20;103729.06;;;1.84;89.18
68793;BME280;55778;54.346;10.210;2023-01-24T03:56:45;103729.06;;;1.84;89.46
68793;BME280;55778;54.346;10.210;2023-01-24T03:59:11;103727.31;;;1.81;90.11
68793;BME280;55778;54.346;10.210;2023-01-24T04:01:36;103733.59;;;1.82;92.04
68793;BME280;55778;54.346;10.210;2023-01-24T04:04:02;103735.31;;;1.87;91.96
68793;BME280;55778;54.346;10.210;2023-01-24T04:06:27;103735.25;;;1.92;91.69
68793;BME280;55778;54.346;10.210;2023-01-24T04:08:52;103734.28;;;1.96;91.66
68793;BME280;55778;54.346;10.210;2023-01-24T04:11:18;103736.91;;;2.00;91.33
68793;BME280;55778;54.346;10.210;2023-01-24T04:13:43;103732.53;;;1.95;91.65
68793;BME280;55778;54.346;10.210;2023-01-24T04:16:09;103730.69;;;1.98;91.12
68793;BME280;55778;54.346;10.210;2023-01-24T04:18:35;103738.72;;;2.03;90.14
68793;BME280;55778;54.346;10.210;2023-01-24T04:21:04;103736.72;;;2.16;89.12
68793;BME280;55778;54.346;10.210;2023-01-24T04:23:30;103732.34;;;2.10;88.45
68793;BME280;55778;54.346;10.210;2023-01-24T04:25:56;103736.00;;;2.04;88.83
68793;BME280;55778;54.346;10.210;2023-01-24T04:28:25;103732.47;;;1.98;89.00
68793;BME280;55778;54.346;10.210;2023-01-24T04:31:00;103730.78;;;1.92;89.26
68793;BME280;55778;54.346;10.210;2023-01-24T04:33:26;103732.63;;;1.87;89.14
68793;BME280;55778;54.346;10.210;2023-01-24T04:35:56;103733.53;;;1.86;89.35
68793;BME280;55778;54.346;10.210;2023-01-24T04:38:21;103734.41;;;1.87;89.46
68793;BME280;55778;54.346;10.210;2023-01-24T04:40:47;103729.16;;;1.79;89.81
68793;BME280;55778;54.346;10.210;2023-01-24T04:43:12;103731.84;;;1.79;90.22
68793;BME280;55778;54.346;10.210;2023-01-24T04:45:37;103729.19;;;1.75;89.58
68793;BME280;55778;54.346;10.210;2023-01-24T04:48:03;103724.69;;;1.75;90.43
68793;BME280;55778;54.346;10.210;2023-01-24T04:50:28;103732.72;;;1.77;90.66
68793;BME280;55778;54.346;10.210;2023-01-24T04:52:54;103730.97;;;1.74;91.41
68793;BME280;55778;54.346;10.210;2023-01-24T04:55:19;103730.03;;;1.78;92.47
68793;BME280;55778;54.346;10.210;2023-01-24T04:57:45;103735.25;;;1.90;91.14
68793;BME280;55778;54.346;10.210;2023-01-24T05:00:10;103731.50;;;2.03;90.17
68793;BME280;55778;54.346;10.210;2023-01-24T05:02:36;103727.19;;;1.92;90.17
68793;BME280;55778;54.346;10.210;2023-01-24T05:05:03;103734.31;;;1.94;90.82
68793;BME280;55778;54.346;10.210;2023-01-24T05:07:29;103740.47;;;2.04;90.29
68793;BME280;55778;54.346;10.210;2023-01-24T05:09:54;103730.69;;;2.00;90.57
68793;BME280;55778;54.346;10.210;2023-01-24T05:12:20;103733.44;;;1.94;91.30
68793;BME280;55778;54.346;10.210;2023-01-24T05:14:45;103736.16;;;1.92;91.28
68793;BME280;55778;54.346;10.210;2023-01-24T05:17:10;103737.03;;;1.91;91.68
68793;BME280;55778;54.346;10.210;2023-01-24T05:19:36;103732.63;;;1.86;92.04
68793;BME280;55778;54.346;10.210;2023-01-24T05:22:01;103731.81;;;1.81;91.80
68793;BME280;55778;54.346;10.210;2023-01-24T05:24:26;103742.47;;;1.87;92.49
68793;BME280;55778;54.346;10.210;2023-01-24T05:26:52;103744.34;;;1.80;92.45
68793;BME280;55778;54.346;10.210;2023-01-24T05:29:17;103744.31;;;1.85;92.57
68793;BME280;55778;54.346;10.210;2023-01-24T05:31:43;103742.47;;;1.87;91.60
68793;BME280;55778;54.346;10.210;2023-01-24T05:34:08;103735.19;;;1.96;90.47
68793;BME280;55778;54.346;10.210;2023-01-24T05:36:34;103737.16;;;1.82;91.46
68793;BME280;55778;54.346;10.210;2023-01-24T05:38:59;103738.06;;;1.81;91.48
68793;BME280;55778;54.346;10.210;2023-01-24T05:41:24;103742.56;;;1.81;91.25
68793;BME280;55778;54.346;10.210;2023-01-24T05:43:50;103741.63;;;1.85;91.49
68793;BME280;55778;54.346;10.210;2023-01-24T05:46:18;103737.88;;;1.96;90.23
68793;BME280;55778;54.346;10.210;2023-01-24T05:48:44;103740.56;;;1.96;90.34
68793;BME280;55778;54.346;10.210;2023-01-24T05:51:11;103746.06;;;1.87;90.61
68793;BME280;55778;54.346;10.210;2023-01-24T05:53:39;103742.25;;;2.05;90.29
68793;BME280;55778;54.346;10.210;2023-01-24T05:56:07;103751.09;;;2.15;89.29
68793;BME280;55778;54.346;10.210;2023-01-24T05:58:34;103742.38;;;1.94;90.47
68793;BME280;55778;54.346;10.210;2023-01-24T06:01:00;103737.84;;;1.99;90.55
68793;BME280;55778;54.346;10.210;2023-01-24T06:03:26;103742.31;;;2.00;89.82
68793;BME280;55778;54.346;10.210;2023-01-24T06:05:54;103738.81;;;1.94;90.81
68793;BME280;55778;54.346;10.210;2023-01-24T06:08:21;103738.91;;;1.86;90.84
68793;BME280;55778;54.346;10.210;2023-01-24T06:10:47;103741.66;;;1.80;91.48
68793;BME280;55778;54.346;10.210;2023-01-24T06:13:13;103748.03;;;1.73;91.95
68793;BME280;55778;54.346;10.210;2023-01-24T06:15:39;103750.75;;;1.70;92.50
68793;BME280;55778;54.346;10.210;2023-01-24T06:18:06;103738.09;;;1.78;92.49
68793;BME280;55778;54.346;10.210;2023-01-24T06:20:32;103737.94;;;1.90;91.04
68793;BME280;55778;54.346;10.210;2023-01-24T06:23:10;103744.34;;;1.80;91.26
68793;BME280;55778;54.346;10.210;2023-01-24T06:25:44;103739.94;;;1.75;91.37
68793;BME280;55778;54.346;10.210;2023-01-24T06:28:10;103743.34;;;1.89;91.29
68793;BME280;55778;54.346;10.210;2023-01-24T06:30:39;103745.03;;;1.96;89.80
68793;BME280;55778;54.346;10.210;2023-01-24T06:38:40;103754.13;;;1.87;90.09
68793;BME280;55778;54.346;10.210;2023-01-24T06:41:13;103752.38;;;1.83;90.62
68793;BME280;55778;54.346;10.210;2023-01-24T06:43:39;103746.97;;;1.88;90.81
68793;BME280;55778;54.346;10.210;2023-01-24T06:46:04;103754.94;;;1.95;89.54
68793;BME280;55778;54.346;10.210;2023-01-24T06:48:30;103763.09;;;1.88;89.77
68793;BME280;55778;54.346;10.210;2023-01-24T06:50:55;103754.00;;;1.96;89.64
68793;BME280;55778;54.346;10.210;2023-01-24T06:53:21;103761.97;;;2.05;89.40
68793;BME280;55778;54.346;10.210;2023-01-24T06:55:46;103767.63;;;1.81;90.13
68793;BME280;55778;54.346;10.210;2023-01-24T06:58:11;103771.25;;;1.80;90.85
68793;BME280;55778;54.346;10.210;2023-01-24T07:00:37;103767.81;;;1.63;90.57
68793;BME280;55778;54.346;10.210;2023-01-24T07:03:04;103770.53;;;1.62;91.32
68793;BME280;55778;54.346;10.210;2023-01-24T07:05:35;103777.53;;;1.78;91.30
68793;BME280;55778;54.346;10.210;2023-01-24T07:08:01;103784.78;;;1.70;90.41
68793;BME280;55778;54.346;10.210;2023-01-24T07:10:26;103789.31;;;1.63;90.61
68793;BME280;55778;54.346;10.210;2023-01-24T07:12:52;103791.13;;;1.64;91.01
68793;BME280;55778;54.346;10.210;2023-01-24T07:15:18;103786.63;;;1.65;91.59
68793;BME280;55778;54.346;10.210;2023-01-24T07:17:43;103791.16;;;1.63;92.08
68793;BME280;55778;54.346;10.210;2023-01-24T07:20:10;103787.22;;;1.94;90.59
68793;BME280;55778;54.346;10.210;2023-01-24T07:22:37;103790.78;;;1.94;89.98
68793;BME280;55778;54.346;10.210;2023-01-24T07:25:05;103792.53;;;2.00;89.52
68793;BME280;55778;54.346;10.210;2023-01-24T07:27:31;103798.97;;;1.84;90.22
68793;BME280;55778;54.346;10.210;2023-01-24T07:29:56;103792.81;;;1.74;90.46
68793;BME280;55778;54.346;10.210;2023-01-24T07:32:21;103792.81;;;1.73;91.05
68793;BME280;55778;54.346;10.210;2023-01-24T07:34:47;103795.47;;;1.76;91.40
68793;BME280;55778;54.346;10.210;2023-01-24T07:37:12;103791.03;;;1.73;91.21
68793;BME280;55778;54.346;10.210;2023-01-24T07:39:37;103788.44;;;1.64;91.68
68793;BME280;55778;54.346;10.210;2023-01-24T07:42:03;103794.63;;;1.71;91.44
68793;BME280;55778;54.346;10.210;2023-01-24T07:44:28;103796.50;;;1.64;91.52
68793;BME280;55778;54.346;10.210;2023-01-24T07:46:54;103789.22;;;1.72;90.57
68793;BME280;55778;54.346;10.210;2023-01-24T07:49:20;103791.13;;;1.66;90.47
68793;BME280;55778;54.346;10.210;2023-01-24T07:51:45;103791.06;;;1.72;90.61
68793;BME280;55778;54.346;10.210;2023-01-24T07:54:14;103789.03;;;1.90;88.95
68793;BME280;55778;54.346;10.210;2023-01-24T07:56:39;103789.91;;;1.94;89.33
68793;BME280;55778;54.346;10.210;2023-01-24T07:59:05;103788.31;;;1.78;88.70
68793;BME280;55778;54.346;10.210;2023-01-24T08:01:30;103791.91;;;1.74;88.57
68793;BME280;55778;54.346;10.210;2023-01-24T08:03:57;103792.81;;;1.74;89.24
68793;BME280;55778;54.346;10.210;2023-01-24T08:06:23;103788.38;;;1.70;89.25
68793;BME280;55778;54.346;10.210;2023-01-24T08:08:49;103799.16;;;1.67;89.42
68793;BME280;55778;54.346;10.210;2023-01-24T08:11:14;103803.69;;;1.62;90.38
68793;BME280;55778;54.346;10.210;2023-01-24T08:13:43;103793.78;;;1.69;90.37
68793;BME280;55778;54.346;10.210;2023-01-24T08:16:09;103799.97;;;1.72;90.24
68793;BME280;55778;54.346;10.210;2023-01-24T08:18:36;103807.13;;;1.76;90.22
68793;BME280;55778;54.346;10.210;2023-01-24T08:21:02;103804.44;;;1.78;90.36
68793;BME280;55778;54.346;10.210;2023-01-24T08:23:29;103808.91;;;1.76;90.30
68793;BME280;55778;54.346;10.210;2023-01-24T08:25:57;103815.16;;;1.79;90.37
68793;BME280;55778;54.346;10.210;2023-01-24T08:28:23;103816.03;;;1.81;90.50
68793;BME280;55778;54.346;10.210;2023-01-24T08:30:48;103817.78;;;1.84;90.19
68793;BME280;55778;54.346;10.210;2023-01-24T08:33:13;103817.75;;;1.87;90.52
68793;BME280;55778;54.346;10.210;2023-01-24T08:35:43;103804.84;;;2.19;89.38
68793;BME280;55778;54.346;10.210;2023-01-24T08:38:10;103816.41;;;2.26;87.45
68793;BME280;55778;54.346;10.210;2023-01-24T08:40:35;103812.06;;;2.16;87.70
68793;BME280;55778;54.346;10.210;2023-01-24T08:43:00;103816.84;;;1.89;87.60
68793;BME280;55778;54.346;10.210;2023-01-24T08:45:26;103809.84;;;1.73;89.07
68793;BME280;55778;54.346;10.210;2023-01-24T08:47:52;103811.38;;;1.97;88.89
68793;BME280;55778;54.346;10.210;2023-01-24T08:50:18;103816.78;;;1.95;88.25
68793;BME280;55778;54.346;10.210;2023-01-24T08:52:45;103813.03;;;2.08;86.97
68793;BME280;55778;54.346;10.210;2023-01-24T08:55:10;103823.69;;;2.19;85.71
68793;BME280;55778;54.346;10.210;2023-01-24T08:57:36;103819.03;;;2.30;85.23
68793;BME280;55778;54.346;10.210;2023-01-24T09:00:02;103827.31;;;2.15;85.76
68793;BME280;55778;54.346;10.210;2023-01-24T09:02:28;103822.97;;;2.00;86.51
68793;BME280;55778;54.346;10.210;2023-01-24T09:04:54;103826.00;;;1.72;86.77
68793;BME280;55778;54.346;10.210;2023-01-24T09:07:19;103830.34;;;1.83;87.39
68793;BME280;55778;54.346;10.210;2023-01-24T09:09:45;103825.47;;;2.17;85.66
68793;BME280;55778;54.346;10.210;2023-01-24T09:12:10;103833.50;;;2.20;85.70
68793;BME280;55778;54.346;10.210;2023-01-24T09:14:35;103826.41;;;2.15;85.75
68793;BME280;55778;54.346;10.210;2023-01-24T09:17:01;103832.72;;;2.14;85.77
68793;BME280;55778;54.346;10.210;2023-01-24T09:19:26;103836.34;;;2.08;85.76
68793;BME280;55778;54.346;10.210;2023-01-24T09:21:52;103829.09;;;2.16;85.57
68793;BME280;55778;54.346;10.210;2023-01-24T09:24:20;103826.19;;;2.34;85.88
68793;BME280;55778;54.346;10.210;2023-01-24T09:26:46;103823.31;;;2.49;84.21
68793;BME280;55778;54.346;10.210;2023-01-24T09:29:11;103819.66;;;2.53;84.18
68793;BME280;55778;54.346;10.210;2023-01-24T09:31:36;103815.38;;;2.37;83.97
68793;BME280;55778;54.346;10.210;2023-01-24T09:34:02;103826.16;;;2.37;84.83
68793;BME280;55778;54.346;10.210;2023-01-24T09:36:27;103818.19;;;2.28;84.91
68793;BME280;55778;54.346;10.210;2023-01-24T09:38:55;103819.00;;;2.32;84.74
68793;BME280;55778;54.346;10.210;2023-01-24T09:44:03;103829.06;;;2.18;85.50
68793;BME280;55778;54.346;10.210;2023-01-24T09:46:43;103836.47;;;1.96;86.18
68793;BME280;55778;54.346;10.210;2023-01-24T09:51:53;103844.66;;;1.85;86.35
68793;BME280;55778;54.346;10.210;2023-01-24T09:54:47;103852.69;;;1.87;85.30
68793;BME280;55778;54.346;10.210;2023-01-24T10:00:29;103851.19;;;1.59;87.46
68793;BME280;55778;54.346;10.210;2023-01-24T10:02:57;103856.50;;;1.63;87.61
68793;BME280;55778;54.346;10.210;2023-01-24T10:05:28;103854.66;;;1.73;87.28
68793;BME280;55778;54.346;10.210;2023-01-24T10:08:08;103837.56;;;1.78;86.25
68793;BME280;55778;54.346;10.210;2023-01-24T10:10:43;103842.78;;;1.92;86.54
68793;BME280;55778;54.346;10.210;2023-01-24T10:19:37;103839.28;;;1.85;85.53
68793;BME280;55778;54.346;10.210;2023-01-24T10:24:41;103836.78;;;1.67;86.53
68793;BME280;55778;54.346;10.210;2023-01-24T10:27:25;103833.16;;;1.71;85.70
68793;BME280;55778;54.346;10.210;2023-01-24T10:29:58;103829.44;;;1.84;85.68
68793;BME280;55778;54.346;10.210;2023-01-24T10:32:33;103829.25;;;2.01;85.86
68793;BME280;55778;54.346;10.210;2023-01-24T10:35:11;103823.69;;;2.19;85.64
68793;BME280;55778;54.346;10.210;2023-01-24T10:37:42;103822.75;;;2.20;86.10
68793;BME280;55778;54.346;10.210;2023-01-24T10:40:13;103808.25;;;2.32;85.53
68793;BME280;55778;54.346;10.210;2023-01-24T10:42:40;103813.31;;;2.57;83.54
68793;BME280;55778;54.346;10.210;2023-01-24T10:47:50;103806.16;;;2.55;82.85
68793;BME280;55778;54.346;10.210;2023-01-24T10:50:21;103807.81;;;2.65;82.37
68793;BME280;55778;54.346;10.210;2023-01-24T10:52:48;103803.44;;;2.58;82.56
68793;BME280;55778;54.346;10.210;2023-01-24T10:55:34;103804.41;;;2.52;83.59
68793;BME280;55778;54.346;10.210;2023-01-24T10:58:03;103813.22;;;2.63;82.63
68793;BME280;55778;54.346;10.210;2023-01-24T11:00:44;103800.78;;;2.56;82.26
68793;BME280;55778;54.346;10.210;2023-01-24T11:03:39;103797.53;;;2.29;82.53
68793;BME280;55778;54.346;10.210;2023-01-24T11:06:03;103803.16;;;2.11;83.69
68793;BME280;55778;54.346;10.210;2023-01-24T11:08:34;103796.75;;;2.21;83.98
68793;BME280;55778;54.346;10.210;2023-01-24T11:11:01;103792.09;;;2.32;84.14
68793;BME280;55778;54.346;10.210;2023-01-24T11:16:01;103781.22;;;2.41;84.78
68793;BME280;55778;54.346;10.210;2023-01-24T11:18:29;103785.59;;;2.52;84.63
68793;BME280;55778;54.346;10.210;2023-01-24T11:21:16;103788.06;;;2.66;83.84
68793;BME280;55778;54.346;10.210;2023-01-24T11:23:42;103791.50;;;2.77;83.42
68793;BME280;55778;54.346;10.210;2023-01-24T11:28:59;103779.09;;;2.65;82.98
68793;BME280;55778;54.346;10.210;2023-01-24T11:31:29;103771.53;;;2.90;80.94
68793;BME280;55778;54.346;10.210;2023-01-24T11:34:24;103771.25;;;3.08;81.29
68793;BME280;55778;54.346;10.210;2023-01-24T11:37:06;103771.63;;;2.84;82.30
68793;BME280;55778;54.346;10.210;2023-01-24T11:42:34;103768.88;;;2.88;81.76
68793;BME280;55778;54.346;10.210;2023-01-24T11:45:26;103755.16;;;3.03;80.69
68793;BME280;55778;54.346;10.210;2023-01-24T11:50:45;103758.88;;;2.96;80.31
68793;BME280;55778;54.346;10.210;2023-01-24T11:54:22;103751.91;;;2.83;81.00
68793;BME280;55778;54.346;10.210;2023-01-24T11:59:43;103748.69;;;2.57;81.93
68793;BME280;55778;54.346;10.210;2023-01-24T12:10:42;103758.50;;;2.61;81.10
68793;BME280;55778;54.346;10.210;2023-01-24T12:13:32;103756.94;;;2.45;82.60
68793;BME280;55778;54.346;10.210;2023-01-24T12:16:25;103741.63;;;2.50;82.15
68793;BME280;55778;54.346;10.210;2023-01-24T12:19:02;103747.91;;;2.52;82.14
68793;BME280;55778;54.346;10.210;2023-01-24T12:21:34;103745.22;;;2.52;82.23
68793;BME280;55778;54.346;10.210;2023-01-24T12:24:08;103740.59;;;2.59;82.02
68793;BME280;55778;54.346;10.210;2023-01-24T12:26:44;103739.66;;;2.61;81.89
68793;BME280;55778;54.346;10.210;2023-01-24T12:29:15;103733.38;;;2.64;81.53
68793;BME280;55778;54.346;10.210;2023-01-24T12:45:14;103724.03;;;2.86;80.75
68793;BME280;55778;54.346;10.210;2023-01-24T12:47:53;103726.81;;;2.81;80.65
68793;BME280;55778;54.346;10.210;2023-01-24T12:50:34;103724.22;;;2.74;81.00
68793;BME280;55778;54.346;10.210;2023-01-24T12:58:35;103715.94;;;2.28;83.33
68793;BME280;55778;54.346;10.210;2023-01-24T13:12:16;103716.16;;;2.13;83.31
68793;BME280;55778;54.346;10.210;2023-01-24T13:15:05;103716.66;;;2.39;82.67
68793;BME280;55778;54.346;10.210;2023-01-24T13:34:15;103694.38;;;1.64;86.39
68793;BME280;55778;54.346;10.210;2023-01-24T13:36:46;103698.59;;;1.85;85.48
68793;BME280;55778;54.346;10.210;2023-01-24T13:39:32;103695.09;;;1.77;85.49
68793;BME280;55778;54.346;10.210;2023-01-24T13:42:19;103698.69;;;1.77;85.66
68793;BME280;55778;54.346;10.210;2023-01-24T13:44:44;103705.88;;;1.75;86.67
68793;BME280;55778;54.346;10.210;2023-01-24T13:54:58;103694.50;;;2.24;84.16
68793;BME280;55778;54.346;10.210;2023-01-24T13:57:28;103694.44;;;2.28;84.12
68793;BME280;55778;54.346;10.210;2023-01-24T14:02:36;103682.91;;;2.19;83.87
68793;BME280;55778;54.346;10.210;2023-01-24T14:10:50;103679.41;;;2.12;84.41
68793;BME280;55778;54.346;10.210;2023-01-24T14:19:14;103674.47;;;1.80;86.06
68793;BME280;55778;54.346;10.210;2023-01-24T14:21:52;103675.13;;;1.97;84.68
68793;BME280;55778;54.346;10.210;2023-01-24T14:24:28;103664.44;;;1.91;85.04
68793;BME280;55778;54.346;10.210;2023-01-24T14:26:58;103662.75;;;1.84;84.96
68793;BME280;55778;54.346;10.210;2023-01-24T14:29:36;103659.22;;;1.81;84.97
68793;BME280;55778;54.346;10.210;2023-01-24T14:32:05;103660.19;;;1.75;85.01
68793;BME280;55778;54.346;10.210;2023-01-24T14:34:43;103656.78;;;1.63;85.15
68793;BME280;55778;54.346;10.210;2023-01-24T14:37:13;103654.94;;;1.65;85.67
68793;BME280;55778;54.346;10.210;2023-01-24T14:39:41;103651.44;;;1.60;85.76
68793;BME280;55778;54.346;10.210;2023-01-24T14:42:15;103653.19;;;1.61;86.20
68793;BME280;55778;54.346;10.210;2023-01-24T14:44:54;103657.75;;;1.54;86.83
68793;BME280;55778;54.346;10.210;2023-01-24T14:47:21;103657.75;;;1.54;87.30
68793;BME280;55778;54.346;10.210;2023-01-24T14:49:53;103663.84;;;1.70;86.12
68793;BME280;55778;54.346;10.210;2023-01-24T14:52:27;103669.06;;;1.82;85.28
68793;BME280;55778;54.346;10.210;2023-01-24T15:02:27;103682.88;;;1.50;86.91
68793;BME280;55778;54.346;10.210;2023-01-24T15:04:53;103688.19;;;1.55;87.23
68793;BME280;55778;54.346;10.210;2023-01-24T15:07:18;103684.50;;;1.65;86.23
68793;BME280;55778;54.346;10.210;2023-01-24T15:09:44;103684.56;;;1.59;86.40
68793;BME280;55778;54.346;10.210;2023-01-24T15:12:13;103685.50;;;1.56;86.46
68793;BME280;55778;54.346;10.210;2023-01-24T15:14:39;103668.34;;;1.66;86.00
68793;BME280;55778;54.346;10.210;2023-01-24T15:17:15;103667.53;;;1.61;86.82